Flight Number: AVA1270 Duration: 2:00
Departure: Athens Eleftherios Venizelos (LGAV) at 06:25 Distance: 692.182 Nm
Arrival: Vienna Schwechat (LOWW) at 08:25 Equipment: B737

Weather Information
Athens Eleftherios Venizelos International Airport, Greece (LGAV) 37-56N 023-56E Feb 27, 2024 - 12:20 PM EST / 2024.02.27 1720 UTC
Wind: from the E (090 degrees) at 7 MPH (6 KT):0
Visibility: greater than 7 mile(s):0
Sky conditions: mostly cloudy Temperature: 59 F (15 C) Dew Point: 51 F (11 C) Relative Humidity: 76% Pressure (altimeter): 30.09 in. Hg (1019 hPa)
ob: LGAV 271720Z 09006KT 9999 FEW015 BKN030 15/11 Q1019 NOSIG cycle: 17
Sunrise: 05:01 Sunset: 16:12 (UTC)

Wien / Schwechat-Flughafen, Austria (LOWW) 48-07N 016-34E 190M Feb 27, 2024 - 12:20 PM EST / 2024.02.27 1720 UTC
Wind: from the SSE (150 degrees) at 9 MPH (8 KT):0
Visibility: greater than 7 mile(s):0 Temperature: 53 F (12 C) Dew Point: 46 F (8 C) Relative Humidity: 76% Pressure (altimeter): 29.91 in. Hg (1013 hPa)
ob: LOWW 271720Z 15008KT CAVOK 12/08 Q1013 NOSIG cycle: 17
Sunrise: 05:42 Sunset: 16:30 (UTC)

TAF:2024/02/27 18:19 TAF LOWW 271715Z 2718/2824 14012KT CAVOK TX14/2814Z TN08/2806Z TEMPO 2718/2723 -RA BECMG 2802/2804 14005KT FM280600 32004KT 5000 BR FEW006 SCT012 PROB30 TEMPO 2806/2808 BKN006 FM280900 33008KT 9999 BKN030

Previous Pireps for this route
Date Flightnr Aircraft Flight time Fuel used Landing rate On time
2017-01-02AVA1270B73702.1611348-96No
(pireps marked green are flown by you)

Route map